Impacts METAR Board INFO
IDs:

KSAN - San Diego Intl Arpt, CA, US

Updated at: 1202 UTC 19 Nov 2017
Potential Impact None Slight Moderate High
Time19/00Z 19/01Z 19/02Z 19/03Z 19/04Z 19/05Z 19/06Z 19/07Z 19/08Z 19/09Z 19/10Z 19/11Z 19/12Z
VIS10 10 9 10 10 10 9 6 5 5 0.25 3 0.13
CIG200 200 200 200 200 200 200 6 -- -- 3 -- 2
CoverBKNBKNBKNBKNBKNBKNBKNBKNSCTFEWOVCSCTOVX
FltCatVFRVFRVFRVFRVFRVFRVFRIFRMVFRMVFRLIFRMVFRLIFR
WX--------------BRBRBRFGBRFG
WDir34034034033003200100306000
WSpd9 8 6 5 0 3 0 5 0 3 4 0 0
WGst-- -- -- -- -- -- -- -- -- -- -- -- --
Raw hourly METARs
KSAN 182351Z 34009KT 10SM FEW050 BKN200 21/14 A3006 RMK AO2 SLP177 T02060139 10228 20194 55002
KSAN 190051Z 34008KT 10SM FEW040 BKN200 19/14 A3006 RMK AO2 SLP180 T01940139
KSAN 190151Z 34006KT 9SM FEW040 BKN200 18/15 A3007 RMK AO2 SLP182 T01830150
KSAN 190251Z 33005KT 10SM FEW030 BKN200 18/15 A3008 RMK AO2 SLP186 T01780150 53008
KSAN 190351Z 00000KT 10SM FEW030 BKN200 18/15 A3009 RMK AO2 SLP189 T01780150
KSAN 190451Z 32003KT 10SM FEW020 BKN200 17/14 A3010 RMK AO2 SLP191 T01720144
KSAN 190551Z 00000KT 9SM FEW010 BKN200 17/14 A3009 RMK AO2 SLP190 T01670144 10206 20167 50004
KSAN 190651Z 01005KT 6SM BR BKN006 16/16 A3009 RMK AO2 SLP188 T01610156
KSAN 190751Z 00000KT 5SM BR SCT005 16/15 A3010 RMK AO2 SLP191 T01610150 402280139
KSAN 190851Z 03003KT 5SM BR FEW005 16/14 A3008 RMK AO2 SLP187 T01560144 58001
KSAN 190951Z 06004KT 1/4SM R09/1200V1600FT FG OVC003 15/14 A3007 RMK AO2 SLP181 T01500144
KSAN 191102Z 00000KT 3SM R09/1000V1600FT BR SCT002 14/13 A3005 RMK AO2 VIS W-NW-N 1/4 T01390133 $
KSAN 191151Z 00000KT 1/8SM R09/1000FT FG VV002 13/13 A3006 RMK AO2 SLP179 T01280128 10167 20128 55002 $